createdAt,value
2018-08-31T00:01:01.181Z,9.73
2018-08-31T00:03:41.091Z,8.83
2018-08-31T00:06:21.035Z,10.30
2018-08-31T00:09:03.339Z,9.07
2018-08-31T00:11:43.541Z,8.93
2018-08-31T00:14:12.231Z,8.70
2018-08-31T00:16:41.254Z,9.20
2018-08-31T00:19:10.053Z,10.40
2018-08-31T00:21:38.738Z,9.47
2018-08-31T00:24:18.698Z,10.10
2018-08-31T00:26:58.540Z,8.90
2018-08-31T00:29:38.387Z,7.60
2018-08-31T00:34:28.539Z,10.10
2018-08-31T00:39:20.413Z,8.60
2018-08-31T00:42:09.186Z,10.40
2018-08-31T00:44:49.065Z,10.30
2018-08-31T00:47:17.895Z,10.30
2018-08-31T00:49:46.653Z,10.27
2018-08-31T00:52:15.433Z,11.83
2018-08-31T00:54:44.117Z,11.30
2018-08-31T00:57:13.096Z,10.20
2018-08-31T00:59:41.882Z,10.90
2018-08-31T01:02:10.595Z,9.27
2018-08-31T01:04:39.351Z,10.00
2018-08-31T01:07:08.421Z,9.90
2018-08-31T01:09:37.253Z,10.33
2018-08-31T01:12:06.125Z,10.27
2018-08-31T01:14:35.013Z,9.40
2018-08-31T01:17:03.906Z,9.67
2018-08-31T01:19:32.621Z,9.83
2018-08-31T01:22:01.441Z,10.03
2018-08-31T01:24:30.211Z,9.40
2018-08-31T01:26:58.959Z,11.07
2018-08-31T01:29:27.701Z,10.43
2018-08-31T01:31:56.619Z,12.00
2018-08-31T01:34:25.643Z,10.47
2018-08-31T01:36:54.351Z,9.67
2018-08-31T01:39:23.138Z,10.90
2018-08-31T01:41:51.958Z,10.90
2018-08-31T01:44:20.735Z,12.17
2018-08-31T01:46:49.889Z,11.37
2018-08-31T01:49:18.663Z,10.87
2018-08-31T01:51:47.319Z,10.90
2018-08-31T01:54:16.140Z,11.63
2018-08-31T01:56:44.853Z,11.10
2018-08-31T01:59:13.743Z,10.07
2018-08-31T02:01:42.501Z,9.43
2018-08-31T02:04:11.437Z,11.20
2018-08-31T02:06:40.211Z,10.47
2018-08-31T02:09:14.184Z,10.90
2018-08-31T02:11:43.216Z,10.80
2018-08-31T02:14:12.135Z,10.50
2018-08-31T02:16:40.859Z,9.90
2018-08-31T02:19:09.679Z,10.20
2018-08-31T02:21:38.489Z,10.60
2018-08-31T02:24:07.484Z,10.67
2018-08-31T02:26:36.478Z,10.33
2018-08-31T02:29:05.235Z,9.93
2018-08-31T02:31:34.092Z,11.17
2018-08-31T02:34:02.884Z,9.40
2018-08-31T02:36:31.748Z,12.17
2018-08-31T02:39:00.604Z,10.47
2018-08-31T02:41:29.271Z,11.20
2018-08-31T02:43:58.247Z,10.97
2018-08-31T02:46:26.968Z,10.83
2018-08-31T02:48:55.974Z,12.20
2018-08-31T02:51:24.668Z,11.00
2018-08-31T02:53:53.378Z,11.57
2018-08-31T02:56:22.081Z,12.00
2018-08-31T02:58:50.741Z,11.23
2018-08-31T03:01:19.570Z,12.20
2018-08-31T03:03:48.470Z,10.77
2018-08-31T03:06:17.257Z,11.17
2018-08-31T03:08:46.181Z,11.40
2018-08-31T03:11:14.869Z,12.20
2018-08-31T03:13:43.678Z,13.00
2018-08-31T03:16:12.442Z,11.17
2018-08-31T03:18:41.138Z,11.30
2018-08-31T03:21:10.216Z,9.87
2018-08-31T03:23:38.886Z,12.20
2018-08-31T03:26:07.598Z,11.53
2018-08-31T03:28:36.288Z,11.70
2018-08-31T03:31:05.078Z,10.07
2018-08-31T03:33:33.973Z,10.73
2018-08-31T03:36:02.857Z,11.40
2018-08-31T03:38:31.504Z,9.97
2018-08-31T03:41:00.521Z,10.73
2018-08-31T03:43:29.287Z,10.00
2018-08-31T03:45:58.210Z,11.03
2018-08-31T03:48:26.865Z,10.93
2018-08-31T03:50:55.674Z,11.30
2018-08-31T03:53:24.569Z,10.97
2018-08-31T03:55:53.224Z,9.67
2018-08-31T03:58:21.957Z,10.00
2018-08-31T04:00:50.630Z,12.33
2018-08-31T04:03:19.290Z,11.77
2018-08-31T04:05:48.194Z,12.60
2018-08-31T04:08:16.993Z,11.23
2018-08-31T04:10:45.654Z,11.70
2018-08-31T04:13:14.584Z,13.13
2018-08-31T04:15:43.336Z,12.13
2018-08-31T04:18:12.030Z,13.80
2018-08-31T04:20:40.770Z,13.50
2018-08-31T04:23:09.558Z,12.40
2018-08-31T04:25:38.518Z,12.60
2018-08-31T04:28:07.286Z,12.53
2018-08-31T04:30:35.910Z,12.13
2018-08-31T04:33:04.635Z,12.43
2018-08-31T04:35:33.342Z,11.53
2018-08-31T04:38:02.378Z,11.30
2018-08-31T04:40:31.186Z,11.07
2018-08-31T04:43:00.089Z,9.73
2018-08-31T04:45:28.774Z,10.90
2018-08-31T04:47:57.538Z,10.60
2018-08-31T04:50:26.515Z,10.00
2018-08-31T04:52:55.136Z,10.07
2018-08-31T04:55:23.765Z,9.07
2018-08-31T04:57:52.430Z,10.30
2018-08-31T05:00:21.110Z,10.77
2018-08-31T05:02:50.270Z,10.60
2018-08-31T05:05:19.154Z,9.70
2018-08-31T05:07:47.958Z,9.83
2018-08-31T05:10:16.725Z,10.13
2018-08-31T05:12:45.461Z,9.70
2018-08-31T05:15:14.307Z,10.80
2018-08-31T05:17:43.241Z,10.63
2018-08-31T05:20:11.933Z,9.60
2018-08-31T05:22:40.704Z,11.07
2018-08-31T05:25:09.468Z,10.47
2018-08-31T05:27:38.450Z,11.83
2018-08-31T05:30:07.543Z,9.27
2018-08-31T05:32:36.937Z,9.90
2018-08-31T05:35:06.054Z,10.03
2018-08-31T05:37:35.027Z,10.50
2018-08-31T05:40:03.991Z,9.20
2018-08-31T05:42:32.796Z,9.67
2018-08-31T05:45:01.614Z,10.33
2018-08-31T05:47:30.269Z,9.73
2018-08-31T05:49:59.081Z,10.63
2018-08-31T05:52:27.892Z,9.90
2018-08-31T05:54:56.634Z,9.30
2018-08-31T05:57:25.561Z,10.37
2018-08-31T05:59:54.248Z,10.50
2018-08-31T06:02:23.123Z,10.10
2018-08-31T06:04:51.829Z,9.83
2018-08-31T06:07:20.571Z,9.77
2018-08-31T06:09:49.303Z,9.83
2018-08-31T06:12:18.033Z,9.53
2018-08-31T06:14:46.758Z,10.33
2018-08-31T06:17:15.713Z,10.13
2018-08-31T06:19:44.381Z,10.50
2018-08-31T06:22:13.326Z,9.80
2018-08-31T06:24:42.116Z,9.73
2018-08-31T06:27:10.883Z,9.40
2018-08-31T06:29:39.610Z,9.37
2018-08-31T06:32:08.485Z,10.40
2018-08-31T06:34:37.274Z,10.27
2018-08-31T06:37:06.597Z,10.50
2018-08-31T06:39:35.337Z,9.80
2018-08-31T06:42:04.384Z,11.10
2018-08-31T06:44:33.136Z,9.67
2018-08-31T06:47:01.809Z,9.20
2018-08-31T06:49:30.548Z,8.37
2018-08-31T06:51:59.294Z,10.17
2018-08-31T06:54:28.121Z,9.60
2018-08-31T06:56:56.776Z,9.60
2018-08-31T06:59:25.551Z,9.73
2018-08-31T07:01:54.433Z,9.00
2018-08-31T07:04:23.172Z,9.97
2018-08-31T07:06:52.065Z,8.33
2018-08-31T07:09:20.713Z,9.07
2018-08-31T07:11:49.484Z,10.27
2018-08-31T07:14:18.580Z,10.73
2018-08-31T07:16:47.282Z,9.10
2018-08-31T07:19:16.963Z,10.07
2018-08-31T07:21:45.786Z,7.63
2018-08-31T07:24:14.599Z,10.03
2018-08-31T07:26:43.547Z,8.80
2018-08-31T07:29:12.234Z,9.00
2018-08-31T07:31:41.022Z,9.83
2018-08-31T07:34:09.945Z,7.50
2018-08-31T07:36:38.613Z,10.47
2018-08-31T07:39:09.785Z,9.00
2018-08-31T07:41:38.569Z,8.93
2018-08-31T07:44:07.567Z,8.97
2018-08-31T07:46:36.343Z,8.83
2018-08-31T07:49:05.082Z,8.83
2018-08-31T07:51:33.886Z,8.13
2018-08-31T07:54:02.678Z,7.80
2018-08-31T07:56:31.414Z,9.90
2018-08-31T07:59:00.185Z,7.33
2018-08-31T08:01:28.858Z,7.50
2018-08-31T08:03:57.563Z,9.17
2018-08-31T08:06:26.239Z,8.30
2018-08-31T08:08:54.993Z,8.23
2018-08-31T08:11:23.929Z,7.10
2018-08-31T08:13:52.622Z,8.30
2018-08-31T08:16:21.413Z,8.80
2018-08-31T08:18:50.157Z,8.50
2018-08-31T08:21:19.219Z,7.60
2018-08-31T08:23:48.097Z,6.93
2018-08-31T08:26:16.769Z,9.30
2018-08-31T08:28:45.913Z,7.30
2018-08-31T08:31:14.641Z,8.63
2018-08-31T08:33:43.898Z,6.77
2018-08-31T08:36:12.587Z,7.33
2018-08-31T08:38:41.358Z,8.67
2018-08-31T08:41:10.074Z,7.50
2018-08-31T08:43:38.918Z,7.43
2018-08-31T08:46:07.789Z,5.83
2018-08-31T08:48:36.790Z,8.00
2018-08-31T08:51:05.385Z,7.70
2018-08-31T08:53:34.279Z,7.40
2018-08-31T08:56:03.003Z,8.30
2018-08-31T08:58:31.703Z,6.83
2018-08-31T09:01:00.463Z,7.10
2018-08-31T09:03:29.205Z,7.30
2018-08-31T09:05:57.906Z,7.37
2018-08-31T09:08:26.724Z,6.50
2018-08-31T09:10:55.498Z,6.60
2018-08-31T09:13:24.146Z,7.63
2018-08-31T09:15:52.866Z,6.97
2018-08-31T09:18:26.583Z,6.03
2018-08-31T09:20:56.170Z,6.70
2018-08-31T09:23:25.162Z,7.40
2018-08-31T09:25:54.832Z,6.90
2018-08-31T09:28:23.457Z,6.97
2018-08-31T09:30:52.205Z,6.47
2018-08-31T09:33:21.014Z,6.10
2018-08-31T09:35:49.690Z,6.57
2018-08-31T09:38:19.386Z,6.30
2018-08-31T09:40:48.246Z,5.90
2018-08-31T09:43:16.995Z,5.80
2018-08-31T09:45:45.665Z,6.63
2018-08-31T09:48:14.511Z,6.40
2018-08-31T09:50:43.197Z,6.67
2018-08-31T09:53:11.977Z,5.73
2018-08-31T09:55:40.897Z,6.53
2018-08-31T09:58:09.556Z,6.23
2018-08-31T10:00:43.621Z,5.80
2018-08-31T10:03:17.418Z,6.20
2018-08-31T10:05:46.167Z,6.43
2018-08-31T10:08:14.800Z,5.87
2018-08-31T10:10:43.905Z,6.47
2018-08-31T10:13:14.337Z,6.00
2018-08-31T10:15:43.932Z,6.03
2018-08-31T10:18:12.679Z,6.30
2018-08-31T10:20:41.446Z,6.27
2018-08-31T10:23:10.276Z,5.93
2018-08-31T10:25:39.587Z,6.30
2018-08-31T10:28:15.050Z,6.57
2018-08-31T10:30:43.930Z,5.40
2018-08-31T10:33:12.773Z,5.97
2018-08-31T10:35:41.656Z,5.63
2018-08-31T10:38:10.410Z,5.60
2018-08-31T10:40:39.344Z,4.77
2018-08-31T10:43:08.119Z,6.10
2018-08-31T10:45:36.801Z,6.63
2018-08-31T10:48:05.934Z,6.47
2018-08-31T10:50:34.715Z,6.27
2018-08-31T10:53:03.512Z,6.57
2018-08-31T10:55:32.157Z,6.07
2018-08-31T10:58:00.825Z,5.63
2018-08-31T11:00:29.851Z,6.30
2018-08-31T11:02:58.805Z,5.60
2018-08-31T11:05:27.648Z,5.57
2018-08-31T11:07:56.421Z,5.43
2018-08-31T11:10:25.102Z,6.50
2018-08-31T11:12:54.014Z,5.20
2018-08-31T11:15:23.057Z,5.60
2018-08-31T11:17:51.733Z,5.60
2018-08-31T11:20:20.432Z,5.33
2018-08-31T11:22:49.394Z,6.13
2018-08-31T11:25:18.161Z,5.50
2018-08-31T11:27:46.873Z,6.03
2018-08-31T11:30:15.820Z,5.70
2018-08-31T11:32:44.954Z,5.80
2018-08-31T11:35:13.733Z,6.53
2018-08-31T11:37:42.410Z,6.73
2018-08-31T11:40:11.185Z,4.60
2018-08-31T11:42:39.981Z,6.20
2018-08-31T11:45:09.082Z,6.27
2018-08-31T11:47:37.961Z,4.87
2018-08-31T11:50:07.028Z,7.30
2018-08-31T11:52:35.731Z,5.27
2018-08-31T11:55:04.602Z,5.40
2018-08-31T11:57:33.222Z,5.60
2018-08-31T12:00:01.893Z,5.77
2018-08-31T12:02:30.621Z,5.00
2018-08-31T12:04:59.378Z,5.37
2018-08-31T12:07:28.073Z,6.50
2018-08-31T12:09:58.482Z,5.97
2018-08-31T12:12:30.521Z,6.07
2018-08-31T12:14:59.380Z,5.30
2018-08-31T12:17:28.138Z,5.17
2018-08-31T12:19:56.846Z,4.90
2018-08-31T12:22:25.793Z,5.07
2018-08-31T12:24:54.629Z,5.20
2018-08-31T12:27:23.329Z,4.73
2018-08-31T12:29:52.065Z,5.20
2018-08-31T12:32:20.766Z,4.40
2018-08-31T12:34:49.664Z,5.60
2018-08-31T12:37:19.103Z,5.40
2018-08-31T12:39:47.806Z,4.50
2018-08-31T12:42:16.521Z,5.33
2018-08-31T12:44:45.462Z,5.10
2018-08-31T12:47:14.217Z,4.17
2018-08-31T12:49:42.901Z,4.90
2018-08-31T12:52:11.604Z,5.50
2018-08-31T12:54:40.370Z,4.20
2018-08-31T12:57:09.229Z,5.00
2018-08-31T12:59:38.026Z,5.60
2018-08-31T13:02:06.668Z,4.70
2018-08-31T13:04:35.514Z,4.30
2018-08-31T13:07:04.582Z,5.77
2018-08-31T13:09:33.249Z,4.90
2018-08-31T13:12:01.992Z,5.07
2018-08-31T13:14:30.701Z,4.70
2018-08-31T13:16:59.502Z,4.70
2018-08-31T13:19:28.175Z,4.73
2018-08-31T13:21:56.982Z,4.80
2018-08-31T13:24:25.626Z,5.73
2018-08-31T13:26:54.289Z,4.63
2018-08-31T13:29:23.187Z,4.23
2018-08-31T13:31:51.977Z,5.40
2018-08-31T13:34:20.834Z,4.90
2018-08-31T13:36:49.513Z,5.60
2018-08-31T13:39:18.251Z,5.07
2018-08-31T13:41:47.199Z,5.60
2018-08-31T13:44:15.994Z,4.10
2018-08-31T13:46:44.983Z,4.87
2018-08-31T13:49:14.279Z,5.03
2018-08-31T13:51:43.115Z,5.57
2018-08-31T13:54:12.065Z,5.40
2018-08-31T13:56:40.786Z,4.43
2018-08-31T13:59:09.607Z,5.73
2018-08-31T14:01:38.332Z,4.87
2018-08-31T14:04:07.119Z,5.47
2018-08-31T14:06:36.112Z,5.60
2018-08-31T14:09:06.491Z,5.90
2018-08-31T14:11:35.425Z,6.70
2018-08-31T14:14:04.216Z,5.13
2018-08-31T14:16:35.558Z,5.27
2018-08-31T14:19:05.622Z,4.70
2018-08-31T14:21:34.450Z,4.67
2018-08-31T14:24:03.150Z,6.63
2018-08-31T14:26:32.063Z,7.03
2018-08-31T14:29:00.846Z,7.30
2018-08-31T14:31:29.638Z,6.07
2018-08-31T14:33:58.334Z,5.10
2018-08-31T14:36:27.315Z,5.80
2018-08-31T14:38:55.930Z,5.37
2018-08-31T14:41:24.623Z,5.30
2018-08-31T14:43:53.615Z,5.80
2018-08-31T14:46:22.393Z,5.17
2018-08-31T14:48:51.281Z,5.43
2018-08-31T14:51:20.179Z,5.20
2018-08-31T14:53:49.003Z,5.23
2018-08-31T14:56:18.704Z,4.83
2018-08-31T14:58:47.450Z,5.17
2018-08-31T15:01:16.511Z,5.47
2018-08-31T15:03:45.185Z,5.53
2018-08-31T15:06:13.958Z,4.47
2018-08-31T15:08:42.682Z,5.47
2018-08-31T15:11:11.421Z,5.57
2018-08-31T15:13:40.383Z,4.93
2018-08-31T15:16:09.120Z,5.60
2018-08-31T15:18:37.811Z,5.97
2018-08-31T15:21:06.736Z,5.20
2018-08-31T15:23:35.780Z,6.03
2018-08-31T15:26:04.529Z,5.07
2018-08-31T15:28:33.375Z,6.30
2018-08-31T15:31:02.082Z,5.20
2018-08-31T15:33:30.773Z,5.30
2018-08-31T15:35:59.549Z,5.57
2018-08-31T15:38:28.672Z,5.97
2018-08-31T15:40:57.508Z,4.77
2018-08-31T15:43:26.334Z,4.70
2018-08-31T15:45:55.284Z,5.47
2018-08-31T15:48:23.996Z,5.77
2018-08-31T15:50:52.862Z,5.77
2018-08-31T15:53:21.623Z,5.40
2018-08-31T15:55:50.614Z,5.60
2018-08-31T15:58:19.264Z,6.70
2018-08-31T16:00:47.945Z,5.40
2018-08-31T16:03:18.338Z,5.10
2018-08-31T16:05:47.057Z,5.30
2018-08-31T16:08:15.981Z,6.47
2018-08-31T16:10:44.753Z,5.93
2018-08-31T16:13:13.552Z,6.60
2018-08-31T16:15:42.298Z,5.83
2018-08-31T16:18:11.075Z,6.27
2018-08-31T16:20:39.881Z,6.90
2018-08-31T16:23:08.713Z,7.30
2018-08-31T16:25:37.448Z,6.10
2018-08-31T16:28:06.244Z,6.80
2018-08-31T16:30:35.021Z,6.60
2018-08-31T16:33:04.097Z,6.67
2018-08-31T16:35:32.934Z,6.90
2018-08-31T16:38:01.785Z,5.93
2018-08-31T16:40:30.626Z,6.53
2018-08-31T16:42:59.375Z,7.20
2018-08-31T16:45:28.243Z,7.13
2018-08-31T16:47:56.963Z,6.47
2018-08-31T16:50:25.716Z,7.07
2018-08-31T16:52:54.437Z,6.57
2018-08-31T16:55:23.158Z,6.30
2018-08-31T16:57:51.925Z,7.83
2018-08-31T17:00:20.762Z,5.70
2018-08-31T17:02:49.995Z,7.20
2018-08-31T17:05:18.949Z,5.67
2018-08-31T17:07:47.713Z,6.53
2018-08-31T17:10:16.527Z,6.60
2018-08-31T17:12:45.226Z,6.10
2018-08-31T17:15:14.029Z,7.37
2018-08-31T17:17:42.895Z,6.60
2018-08-31T17:20:11.711Z,6.60
2018-08-31T17:22:40.481Z,6.47
2018-08-31T17:25:09.679Z,6.57
2018-08-31T17:27:43.723Z,8.40
2018-08-31T17:30:17.634Z,6.40
2018-08-31T17:32:51.534Z,7.00
2018-08-31T17:35:26.006Z,7.27
2018-08-31T17:37:54.834Z,7.10
2018-08-31T17:40:23.621Z,7.37
2018-08-31T17:42:52.706Z,6.70
2018-08-31T17:45:21.986Z,8.60
2018-08-31T17:47:51.330Z,7.97
2018-08-31T17:50:20.410Z,8.47
2018-08-31T17:52:49.150Z,6.50
2018-08-31T17:55:17.965Z,7.63
2018-08-31T17:57:46.821Z,6.87
2018-08-31T18:00:15.537Z,10.57
2018-08-31T18:02:44.438Z,7.80
2018-08-31T18:05:13.225Z,7.70
2018-08-31T18:07:41.884Z,7.63
2018-08-31T18:10:10.810Z,7.93
2018-08-31T18:12:39.533Z,6.97
2018-08-31T18:15:08.232Z,6.47
2018-08-31T18:17:37.069Z,6.83
2018-08-31T18:20:06.046Z,7.10
2018-08-31T18:22:35.165Z,6.83
2018-08-31T18:25:04.045Z,6.40
2018-08-31T18:27:32.724Z,7.10
2018-08-31T18:30:01.534Z,7.20
2018-08-31T18:32:30.196Z,8.13
2018-08-31T18:34:59.005Z,7.13
2018-08-31T18:37:27.757Z,7.23
2018-08-31T18:39:56.528Z,7.00
2018-08-31T18:42:25.377Z,6.70
2018-08-31T18:44:54.135Z,7.40
2018-08-31T18:47:22.977Z,6.60
2018-08-31T18:49:51.867Z,6.57
2018-08-31T18:52:20.690Z,7.13
2018-08-31T18:54:49.527Z,6.77
2018-08-31T18:57:18.321Z,6.57
2018-08-31T18:59:47.007Z,6.33
2018-08-31T19:02:15.818Z,7.33
2018-08-31T19:04:44.603Z,5.90
2018-08-31T19:07:13.474Z,7.73
2018-08-31T19:09:42.373Z,6.70
2018-08-31T19:12:11.413Z,7.80
2018-08-31T19:14:40.158Z,7.40
2018-08-31T19:17:08.925Z,7.30
2018-08-31T19:19:37.736Z,8.03
2018-08-31T19:22:06.496Z,7.40
2018-08-31T19:24:35.213Z,8.43
2018-08-31T19:27:04.105Z,6.90
2018-08-31T19:29:32.852Z,7.20
2018-08-31T19:32:01.993Z,6.90
2018-08-31T19:34:30.764Z,7.40
2018-08-31T19:36:59.939Z,7.30
2018-08-31T19:39:28.955Z,8.20
2018-08-31T19:41:57.752Z,7.20
2018-08-31T19:44:26.590Z,6.90
2018-08-31T19:46:55.394Z,6.33
2018-08-31T19:49:24.015Z,6.67
2018-08-31T19:51:52.917Z,6.50
2018-08-31T19:54:21.648Z,7.50
2018-08-31T19:56:50.346Z,7.37
2018-08-31T19:59:18.988Z,7.27
2018-08-31T20:01:47.710Z,7.53
2018-08-31T20:04:16.521Z,6.57
2018-08-31T20:06:45.287Z,7.10
2018-08-31T20:09:14.431Z,7.30
2018-08-31T20:11:43.181Z,5.90
2018-08-31T20:14:11.874Z,5.57
2018-08-31T20:16:40.627Z,6.17
2018-08-31T20:19:09.392Z,6.33
2018-08-31T20:21:38.259Z,5.50
2018-08-31T20:24:07.020Z,5.80
2018-08-31T20:26:35.645Z,6.47
2018-08-31T20:29:04.396Z,6.40
2018-08-31T20:31:33.081Z,6.17
2018-08-31T20:34:02.112Z,6.60
2018-08-31T20:36:30.770Z,6.40
2018-08-31T20:38:59.466Z,5.77
2018-08-31T20:41:28.268Z,6.10
2018-08-31T20:43:57.156Z,5.30
2018-08-31T20:46:26.263Z,5.50
2018-08-31T20:48:55.008Z,5.93
2018-08-31T20:51:23.699Z,5.80
2018-08-31T20:53:52.466Z,6.30
2018-08-31T20:56:21.141Z,5.50
2018-08-31T20:58:49.994Z,6.57
2018-08-31T21:01:18.684Z,6.30
2018-08-31T21:03:47.525Z,5.80
2018-08-31T21:06:16.488Z,5.53
2018-08-31T21:08:45.303Z,5.37
2018-08-31T21:11:14.020Z,4.87
2018-08-31T21:13:42.938Z,5.53
2018-08-31T21:16:11.717Z,5.90
2018-08-31T21:18:40.516Z,6.03
2018-08-31T21:21:09.267Z,5.00
2018-08-31T21:23:38.406Z,5.77
2018-08-31T21:26:07.501Z,5.57
2018-08-31T21:28:36.302Z,5.10
2018-08-31T21:31:05.003Z,5.60
2018-08-31T21:33:33.746Z,6.03
2018-08-31T21:36:02.450Z,5.60
2018-08-31T21:38:31.198Z,5.00
2018-08-31T21:40:59.887Z,5.70
2018-08-31T21:43:28.663Z,5.53
2018-08-31T21:45:57.349Z,5.17
2018-08-31T21:48:26.133Z,5.40
2018-08-31T21:50:55.009Z,6.70
2018-08-31T21:53:23.665Z,5.20
2018-08-31T21:55:52.398Z,7.10
2018-08-31T21:58:21.218Z,6.33
2018-08-31T22:00:49.997Z,5.83
2018-08-31T22:03:18.721Z,5.30
2018-08-31T22:05:48.289Z,6.00
2018-08-31T22:08:18.498Z,6.30
2018-08-31T22:10:47.401Z,5.80
2018-08-31T22:13:16.540Z,6.00
2018-08-31T22:15:45.542Z,5.43
2018-08-31T22:18:14.459Z,5.83
2018-08-31T22:20:43.381Z,5.53
2018-08-31T22:23:12.110Z,6.20
2018-08-31T22:25:40.857Z,5.83
2018-08-31T22:28:09.558Z,6.07
2018-08-31T22:30:38.383Z,6.67
2018-08-31T22:33:07.131Z,5.93
2018-08-31T22:35:35.954Z,6.07
2018-08-31T22:38:04.722Z,5.60
2018-08-31T22:40:33.471Z,5.97
2018-08-31T22:43:02.298Z,5.43
2018-08-31T22:45:30.944Z,5.70
2018-08-31T22:47:59.753Z,6.07
2018-08-31T22:50:28.625Z,6.13
2018-08-31T22:52:57.333Z,6.47
2018-08-31T22:55:26.151Z,5.67
2018-08-31T22:57:54.850Z,6.27
2018-08-31T23:00:23.666Z,6.10
2018-08-31T23:02:52.574Z,6.60
2018-08-31T23:05:21.420Z,7.00
2018-08-31T23:07:55.565Z,7.30
2018-08-31T23:10:24.293Z,6.83
2018-08-31T23:12:52.961Z,6.50
2018-08-31T23:15:21.665Z,5.77
2018-08-31T23:17:52.205Z,5.70
2018-08-31T23:20:22.029Z,5.80
2018-08-31T23:22:51.052Z,7.47
2018-08-31T23:25:25.439Z,6.47
2018-08-31T23:27:54.084Z,8.23
2018-08-31T23:30:22.774Z,6.87
2018-08-31T23:32:51.646Z,8.40
2018-08-31T23:35:20.530Z,6.30
2018-08-31T23:37:49.388Z,7.50
2018-08-31T23:40:18.137Z,7.93
2018-08-31T23:42:47.041Z,7.17
2018-08-31T23:45:15.732Z,7.30
2018-08-31T23:47:44.734Z,5.90
2018-08-31T23:50:13.900Z,6.57
2018-08-31T23:52:42.946Z,5.93
2018-08-31T23:55:11.790Z,5.90
2018-08-31T23:57:40.595Z,6.87
